sensor_id;sensor_type;location;lat;lon;timestamp;P1;durP1;ratioP1;P2;durP2;ratioP2
27365;SDS011;14837;57.148;-2.144;2023-09-18T00:00:17;2.75;;;0.80;;
27365;SDS011;14837;57.148;-2.144;2023-09-18T00:02:44;1.98;;;1.00;;
27365;SDS011;14837;57.148;-2.144;2023-09-18T00:05:10;1.20;;;0.98;;
27365;SDS011;14837;57.148;-2.144;2023-09-18T00:07:42;0.93;;;0.70;;
27365;SDS011;14837;57.148;-2.144;2023-09-18T00:10:10;2.78;;;0.73;;
27365;SDS011;14837;57.148;-2.144;2023-09-18T00:12:37;2.65;;;1.20;;
27365;SDS011;14837;57.148;-2.144;2023-09-18T00:15:04;0.85;;;0.70;;
27365;SDS011;14837;57.148;-2.144;2023-09-18T00:17:31;2.25;;;1.90;;
27365;SDS011;14837;57.148;-2.144;2023-09-18T00:19:58;1.92;;;1.30;;
27365;SDS011;14837;57.148;-2.144;2023-09-18T00:22:24;1.48;;;0.93;;
27365;SDS011;14837;57.148;-2.144;2023-09-18T00:24:51;2.78;;;1.30;;
27365;SDS011;14837;57.148;-2.144;2023-09-18T00:27:18;4.38;;;1.27;;
27365;SDS011;14837;57.148;-2.144;2023-09-18T00:29:45;1.30;;;0.88;;
27365;SDS011;14837;57.148;-2.144;2023-09-18T00:32:11;2.15;;;0.90;;
27365;SDS011;14837;57.148;-2.144;2023-09-18T00:34:38;1.88;;;1.13;;
27365;SDS011;14837;57.148;-2.144;2023-09-18T00:37:04;2.75;;;1.00;;
27365;SDS011;14837;57.148;-2.144;2023-09-18T00:39:31;4.78;;;1.63;;
27365;SDS011;14837;57.148;-2.144;2023-09-18T00:41:58;4.55;;;1.10;;
27365;SDS011;14837;57.148;-2.144;2023-09-18T00:44:24;3.88;;;1.05;;
27365;SDS011;14837;57.148;-2.144;2023-09-18T00:46:53;1.85;;;0.88;;
27365;SDS011;14837;57.148;-2.144;2023-09-18T00:49:22;1.88;;;0.85;;
27365;SDS011;14837;57.148;-2.144;2023-09-18T00:51:49;2.28;;;0.75;;
27365;SDS011;14837;57.148;-2.144;2023-09-18T00:54:17;2.50;;;0.90;;
27365;SDS011;14837;57.148;-2.144;2023-09-18T00:56:45;4.07;;;1.23;;
27365;SDS011;14837;57.148;-2.144;2023-09-18T00:59:12;1.58;;;0.90;;
27365;SDS011;14837;57.148;-2.144;2023-09-18T01:01:40;1.42;;;0.77;;
27365;SDS011;14837;57.148;-2.144;2023-09-18T01:04:08;3.22;;;1.08;;
27365;SDS011;14837;57.148;-2.144;2023-09-18T01:06:36;3.33;;;1.23;;
27365;SDS011;14837;57.148;-2.144;2023-09-18T01:09:02;2.80;;;1.00;;
27365;SDS011;14837;57.148;-2.144;2023-09-18T01:16:51;3.65;;;1.42;;
27365;SDS011;14837;57.148;-2.144;2023-09-18T01:22:07;2.70;;;1.00;;
27365;SDS011;14837;57.148;-2.144;2023-09-18T01:24:33;3.42;;;1.20;;
27365;SDS011;14837;57.148;-2.144;2023-09-18T01:27:00;4.30;;;2.42;;
27365;SDS011;14837;57.148;-2.144;2023-09-18T01:29:27;2.15;;;1.20;;
27365;SDS011;14837;57.148;-2.144;2023-09-18T01:31:54;2.58;;;1.55;;
27365;SDS011;14837;57.148;-2.144;2023-09-18T01:34:28;3.60;;;1.35;;
27365;SDS011;14837;57.148;-2.144;2023-09-18T01:36:55;3.00;;;1.15;;
27365;SDS011;14837;57.148;-2.144;2023-09-18T01:39:23;3.40;;;1.15;;
27365;SDS011;14837;57.148;-2.144;2023-09-18T01:41:50;2.08;;;1.35;;
27365;SDS011;14837;57.148;-2.144;2023-09-18T01:44:17;2.65;;;1.30;;
27365;SDS011;14837;57.148;-2.144;2023-09-18T01:46:43;3.17;;;1.55;;
27365;SDS011;14837;57.148;-2.144;2023-09-18T01:49:10;3.17;;;1.10;;
27365;SDS011;14837;57.148;-2.144;2023-09-18T01:51:37;2.20;;;1.00;;
27365;SDS011;14837;57.148;-2.144;2023-09-18T01:54:04;1.67;;;0.90;;
27365;SDS011;14837;57.148;-2.144;2023-09-18T01:56:30;2.03;;;1.30;;
27365;SDS011;14837;57.148;-2.144;2023-09-18T01:58:57;2.53;;;1.00;;
27365;SDS011;14837;57.148;-2.144;2023-09-18T02:01:24;1.75;;;1.30;;
27365;SDS011;14837;57.148;-2.144;2023-09-18T02:03:51;2.97;;;1.45;;
27365;SDS011;14837;57.148;-2.144;2023-09-18T02:06:38;2.60;;;0.93;;
27365;SDS011;14837;57.148;-2.144;2023-09-18T02:09:06;2.58;;;1.67;;
27365;SDS011;14837;57.148;-2.144;2023-09-18T02:11:40;1.15;;;0.80;;
27365;SDS011;14837;57.148;-2.144;2023-09-18T02:14:07;5.07;;;1.55;;
27365;SDS011;14837;57.148;-2.144;2023-09-18T02:16:35;3.42;;;1.17;;
27365;SDS011;14837;57.148;-2.144;2023-09-18T02:19:03;2.10;;;1.30;;
27365;SDS011;14837;57.148;-2.144;2023-09-18T02:21:30;3.40;;;1.73;;
27365;SDS011;14837;57.148;-2.144;2023-09-18T02:23:57;3.20;;;1.30;;
27365;SDS011;14837;57.148;-2.144;2023-09-18T02:26:24;2.80;;;1.30;;
27365;SDS011;14837;57.148;-2.144;2023-09-18T02:28:52;2.78;;;1.55;;
27365;SDS011;14837;57.148;-2.144;2023-09-18T02:31:19;1.80;;;1.10;;
27365;SDS011;14837;57.148;-2.144;2023-09-18T02:33:46;2.25;;;0.93;;
27365;SDS011;14837;57.148;-2.144;2023-09-18T02:36:13;2.67;;;1.98;;
27365;SDS011;14837;57.148;-2.144;2023-09-18T02:38:40;2.47;;;1.35;;
27365;SDS011;14837;57.148;-2.144;2023-09-18T02:41:06;3.00;;;1.42;;
27365;SDS011;14837;57.148;-2.144;2023-09-18T02:43:33;2.38;;;1.27;;
27365;SDS011;14837;57.148;-2.144;2023-09-18T02:46:00;3.22;;;1.52;;
27365;SDS011;14837;57.148;-2.144;2023-09-18T02:48:26;3.15;;;1.60;;
27365;SDS011;14837;57.148;-2.144;2023-09-18T02:50:53;3.80;;;1.60;;
27365;SDS011;14837;57.148;-2.144;2023-09-18T02:53:21;2.05;;;1.25;;
27365;SDS011;14837;57.148;-2.144;2023-09-18T02:55:51;4.50;;;1.58;;
27365;SDS011;14837;57.148;-2.144;2023-09-18T02:58:18;3.08;;;1.48;;
27365;SDS011;14837;57.148;-2.144;2023-09-18T03:00:49;4.30;;;1.73;;
27365;SDS011;14837;57.148;-2.144;2023-09-18T03:03:16;3.35;;;1.27;;
27365;SDS011;14837;57.148;-2.144;2023-09-18T03:05:43;4.88;;;1.50;;
27365;SDS011;14837;57.148;-2.144;2023-09-18T03:08:11;4.65;;;1.60;;
27365;SDS011;14837;57.148;-2.144;2023-09-18T03:10:38;3.15;;;1.30;;
27365;SDS011;14837;57.148;-2.144;2023-09-18T03:13:09;6.93;;;2.33;;
27365;SDS011;14837;57.148;-2.144;2023-09-18T03:15:36;2.53;;;1.38;;
27365;SDS011;14837;57.148;-2.144;2023-09-18T03:18:03;3.63;;;2.17;;
27365;SDS011;14837;57.148;-2.144;2023-09-18T03:20:30;1.98;;;1.67;;
27365;SDS011;14837;57.148;-2.144;2023-09-18T03:22:58;4.78;;;1.38;;
27365;SDS011;14837;57.148;-2.144;2023-09-18T03:25:25;4.03;;;1.70;;
27365;SDS011;14837;57.148;-2.144;2023-09-18T03:27:52;4.07;;;2.53;;
27365;SDS011;14837;57.148;-2.144;2023-09-18T03:30:19;3.92;;;2.20;;
27365;SDS011;14837;57.148;-2.144;2023-09-18T03:32:47;3.55;;;1.88;;
27365;SDS011;14837;57.148;-2.144;2023-09-18T03:35:15;4.35;;;2.20;;
27365;SDS011;14837;57.148;-2.144;2023-09-18T03:37:45;2.95;;;2.65;;
27365;SDS011;14837;57.148;-2.144;2023-09-18T03:40:12;3.17;;;1.55;;
27365;SDS011;14837;57.148;-2.144;2023-09-18T03:42:39;3.67;;;1.80;;
27365;SDS011;14837;57.148;-2.144;2023-09-18T03:45:06;5.38;;;2.38;;
27365;SDS011;14837;57.148;-2.144;2023-09-18T03:47:36;2.00;;;1.15;;
27365;SDS011;14837;57.148;-2.144;2023-09-18T03:50:03;3.85;;;2.15;;
27365;SDS011;14837;57.148;-2.144;2023-09-18T03:52:30;4.28;;;1.48;;
27365;SDS011;14837;57.148;-2.144;2023-09-18T03:54:56;5.43;;;1.50;;
27365;SDS011;14837;57.148;-2.144;2023-09-18T03:57:23;4.43;;;1.83;;
27365;SDS011;14837;57.148;-2.144;2023-09-18T03:59:50;4.72;;;1.52;;
27365;SDS011;14837;57.148;-2.144;2023-09-18T04:02:16;6.20;;;2.15;;
27365;SDS011;14837;57.148;-2.144;2023-09-18T04:04:43;3.60;;;1.75;;
27365;SDS011;14837;57.148;-2.144;2023-09-18T04:07:10;3.95;;;1.83;;
27365;SDS011;14837;57.148;-2.144;2023-09-18T04:09:37;6.18;;;2.00;;
27365;SDS011;14837;57.148;-2.144;2023-09-18T04:12:08;3.00;;;1.55;;
27365;SDS011;14837;57.148;-2.144;2023-09-18T04:14:35;4.28;;;1.65;;
27365;SDS011;14837;57.148;-2.144;2023-09-18T04:17:02;4.22;;;2.10;;
27365;SDS011;14837;57.148;-2.144;2023-09-18T04:19:29;2.97;;;2.35;;
27365;SDS011;14837;57.148;-2.144;2023-09-18T04:21:56;4.30;;;1.70;;
27365;SDS011;14837;57.148;-2.144;2023-09-18T04:24:22;3.70;;;1.63;;
27365;SDS011;14837;57.148;-2.144;2023-09-18T04:26:49;5.07;;;1.85;;
27365;SDS011;14837;57.148;-2.144;2023-09-18T04:29:19;3.63;;;1.45;;
27365;SDS011;14837;57.148;-2.144;2023-09-18T04:31:46;3.17;;;1.45;;
27365;SDS011;14837;57.148;-2.144;2023-09-18T04:34:13;2.53;;;1.85;;
27365;SDS011;14837;57.148;-2.144;2023-09-18T04:36:40;4.00;;;1.80;;
27365;SDS011;14837;57.148;-2.144;2023-09-18T04:39:08;2.78;;;1.92;;
27365;SDS011;14837;57.148;-2.144;2023-09-18T04:41:35;3.40;;;1.77;;
27365;SDS011;14837;57.148;-2.144;2023-09-18T04:44:02;3.80;;;1.73;;
27365;SDS011;14837;57.148;-2.144;2023-09-18T04:46:31;4.25;;;2.30;;
27365;SDS011;14837;57.148;-2.144;2023-09-18T04:48:57;4.13;;;1.95;;
27365;SDS011;14837;57.148;-2.144;2023-09-18T04:51:24;5.60;;;2.40;;
27365;SDS011;14837;57.148;-2.144;2023-09-18T04:53:51;3.45;;;2.20;;
27365;SDS011;14837;57.148;-2.144;2023-09-18T04:56:18;3.97;;;2.05;;
27365;SDS011;14837;57.148;-2.144;2023-09-18T04:58:45;3.90;;;1.70;;
27365;SDS011;14837;57.148;-2.144;2023-09-18T05:01:12;4.50;;;1.95;;
27365;SDS011;14837;57.148;-2.144;2023-09-18T05:03:39;5.85;;;2.42;;
27365;SDS011;14837;57.148;-2.144;2023-09-18T05:06:09;4.60;;;1.70;;
27365;SDS011;14837;57.148;-2.144;2023-09-18T05:08:36;3.85;;;1.77;;
27365;SDS011;14837;57.148;-2.144;2023-09-18T05:11:03;3.70;;;1.92;;
27365;SDS011;14837;57.148;-2.144;2023-09-18T05:13:30;3.65;;;2.20;;
27365;SDS011;14837;57.148;-2.144;2023-09-18T05:15:56;4.00;;;1.85;;
27365;SDS011;14837;57.148;-2.144;2023-09-18T05:18:24;3.78;;;1.92;;
27365;SDS011;14837;57.148;-2.144;2023-09-18T05:20:51;3.33;;;1.73;;
27365;SDS011;14837;57.148;-2.144;2023-09-18T05:23:18;2.92;;;1.70;;
27365;SDS011;14837;57.148;-2.144;2023-09-18T05:25:45;2.42;;;1.70;;
27365;SDS011;14837;57.148;-2.144;2023-09-18T05:28:12;3.70;;;1.75;;
27365;SDS011;14837;57.148;-2.144;2023-09-18T05:30:38;3.58;;;1.92;;
27365;SDS011;14837;57.148;-2.144;2023-09-18T05:33:06;5.43;;;2.50;;
27365;SDS011;14837;57.148;-2.144;2023-09-18T05:35:34;2.72;;;2.05;;
27365;SDS011;14837;57.148;-2.144;2023-09-18T05:38:03;1.98;;;1.55;;
27365;SDS011;14837;57.148;-2.144;2023-09-18T05:40:30;3.78;;;2.03;;
27365;SDS011;14837;57.148;-2.144;2023-09-18T05:42:56;3.92;;;1.67;;
27365;SDS011;14837;57.148;-2.144;2023-09-18T05:45:23;3.33;;;1.92;;
27365;SDS011;14837;57.148;-2.144;2023-09-18T05:47:50;2.70;;;1.83;;
27365;SDS011;14837;57.148;-2.144;2023-09-18T05:50:17;4.55;;;2.03;;
27365;SDS011;14837;57.148;-2.144;2023-09-18T05:52:44;4.15;;;1.60;;
27365;SDS011;14837;57.148;-2.144;2023-09-18T05:55:11;4.10;;;2.10;;
27365;SDS011;14837;57.148;-2.144;2023-09-18T05:57:38;5.00;;;1.63;;
27365;SDS011;14837;57.148;-2.144;2023-09-18T06:00:05;3.50;;;2.05;;
27365;SDS011;14837;57.148;-2.144;2023-09-18T06:02:32;2.47;;;1.48;;
27365;SDS011;14837;57.148;-2.144;2023-09-18T06:04:59;5.65;;;1.90;;
27365;SDS011;14837;57.148;-2.144;2023-09-18T06:07:26;7.20;;;2.78;;
27365;SDS011;14837;57.148;-2.144;2023-09-18T06:09:53;5.60;;;2.88;;
27365;SDS011;14837;57.148;-2.144;2023-09-18T06:12:20;5.97;;;1.98;;
27365;SDS011;14837;57.148;-2.144;2023-09-18T06:14:47;3.83;;;2.03;;
27365;SDS011;14837;57.148;-2.144;2023-09-18T06:17:14;3.38;;;1.85;;
27365;SDS011;14837;57.148;-2.144;2023-09-18T06:19:41;3.47;;;2.10;;
27365;SDS011;14837;57.148;-2.144;2023-09-18T06:22:08;2.50;;;1.65;;
27365;SDS011;14837;57.148;-2.144;2023-09-18T06:24:35;4.28;;;2.10;;
27365;SDS011;14837;57.148;-2.144;2023-09-18T06:27:02;4.68;;;2.38;;
27365;SDS011;14837;57.148;-2.144;2023-09-18T06:29:31;3.25;;;2.40;;
27365;SDS011;14837;57.148;-2.144;2023-09-18T06:31:58;5.90;;;3.00;;
27365;SDS011;14837;57.148;-2.144;2023-09-18T06:34:25;2.97;;;2.00;;
27365;SDS011;14837;57.148;-2.144;2023-09-18T06:36:52;4.15;;;2.55;;
27365;SDS011;14837;57.148;-2.144;2023-09-18T06:39:18;3.50;;;2.10;;
27365;SDS011;14837;57.148;-2.144;2023-09-18T06:41:46;4.00;;;2.35;;
27365;SDS011;14837;57.148;-2.144;2023-09-18T06:44:13;3.90;;;2.22;;
27365;SDS011;14837;57.148;-2.144;2023-09-18T06:46:39;3.75;;;1.95;;
27365;SDS011;14837;57.148;-2.144;2023-09-18T06:49:07;3.97;;;2.38;;
27365;SDS011;14837;57.148;-2.144;2023-09-18T06:51:33;5.13;;;2.92;;
27365;SDS011;14837;57.148;-2.144;2023-09-18T06:54:08;3.72;;;3.42;;
27365;SDS011;14837;57.148;-2.144;2023-09-18T06:56:35;5.50;;;3.20;;
27365;SDS011;14837;57.148;-2.144;2023-09-18T06:59:02;4.70;;;2.13;;
27365;SDS011;14837;57.148;-2.144;2023-09-18T07:01:29;5.07;;;2.28;;
27365;SDS011;14837;57.148;-2.144;2023-09-18T07:03:56;4.38;;;3.05;;
27365;SDS011;14837;57.148;-2.144;2023-09-18T07:06:23;3.92;;;2.08;;
27365;SDS011;14837;57.148;-2.144;2023-09-18T07:08:50;4.82;;;2.13;;
27365;SDS011;14837;57.148;-2.144;2023-09-18T07:11:17;3.17;;;2.28;;
27365;SDS011;14837;57.148;-2.144;2023-09-18T07:13:44;2.80;;;1.60;;
27365;SDS011;14837;57.148;-2.144;2023-09-18T07:16:10;4.13;;;1.92;;
27365;SDS011;14837;57.148;-2.144;2023-09-18T07:18:37;2.58;;;2.38;;
27365;SDS011;14837;57.148;-2.144;2023-09-18T07:21:04;2.97;;;1.80;;
27365;SDS011;14837;57.148;-2.144;2023-09-18T07:23:30;5.60;;;2.83;;
27365;SDS011;14837;57.148;-2.144;2023-09-18T07:25:57;4.47;;;2.38;;
27365;SDS011;14837;57.148;-2.144;2023-09-18T07:28:24;3.53;;;2.60;;
27365;SDS011;14837;57.148;-2.144;2023-09-18T07:30:51;3.50;;;2.63;;
27365;SDS011;14837;57.148;-2.144;2023-09-18T07:33:17;4.53;;;2.72;;
27365;SDS011;14837;57.148;-2.144;2023-09-18T07:35:47;4.57;;;2.90;;
27365;SDS011;14837;57.148;-2.144;2023-09-18T07:38:14;4.43;;;2.85;;
27365;SDS011;14837;57.148;-2.144;2023-09-18T07:40:41;3.20;;;2.90;;
27365;SDS011;14837;57.148;-2.144;2023-09-18T07:43:08;4.55;;;2.42;;
27365;SDS011;14837;57.148;-2.144;2023-09-18T07:45:35;4.75;;;3.00;;
27365;SDS011;14837;57.148;-2.144;2023-09-18T07:48:01;4.10;;;2.53;;
27365;SDS011;14837;57.148;-2.144;2023-09-18T07:50:28;3.42;;;2.47;;
27365;SDS011;14837;57.148;-2.144;2023-09-18T07:52:55;8.80;;;3.58;;
27365;SDS011;14837;57.148;-2.144;2023-09-18T07:55:21;5.30;;;2.67;;
27365;SDS011;14837;57.148;-2.144;2023-09-18T07:57:48;2.42;;;2.13;;
27365;SDS011;14837;57.148;-2.144;2023-09-18T08:00:15;3.53;;;2.13;;
27365;SDS011;14837;57.148;-2.144;2023-09-18T08:02:42;3.33;;;1.77;;
27365;SDS011;14837;57.148;-2.144;2023-09-18T08:05:09;2.72;;;2.20;;
27365;SDS011;14837;57.148;-2.144;2023-09-18T08:07:36;2.70;;;2.13;;
27365;SDS011;14837;57.148;-2.144;2023-09-18T08:10:03;2.75;;;2.45;;
27365;SDS011;14837;57.148;-2.144;2023-09-18T08:12:32;3.75;;;2.50;;
27365;SDS011;14837;57.148;-2.144;2023-09-18T08:14:59;4.15;;;2.10;;
27365;SDS011;14837;57.148;-2.144;2023-09-18T08:17:25;2.50;;;2.15;;
27365;SDS011;14837;57.148;-2.144;2023-09-18T08:19:52;2.75;;;2.33;;
27365;SDS011;14837;57.148;-2.144;2023-09-18T08:22:19;2.72;;;2.47;;
27365;SDS011;14837;57.148;-2.144;2023-09-18T08:24:47;2.63;;;2.35;;
27365;SDS011;14837;57.148;-2.144;2023-09-18T08:27:14;4.22;;;2.75;;
27365;SDS011;14837;57.148;-2.144;2023-09-18T08:29:43;3.67;;;2.15;;
27365;SDS011;14837;57.148;-2.144;2023-09-18T08:32:10;11.75;;;4.22;;
27365;SDS011;14837;57.148;-2.144;2023-09-18T08:34:36;4.07;;;3.13;;
27365;SDS011;14837;57.148;-2.144;2023-09-18T08:37:03;6.70;;;3.58;;
27365;SDS011;14837;57.148;-2.144;2023-09-18T08:39:30;3.75;;;2.60;;
27365;SDS011;14837;57.148;-2.144;2023-09-18T08:41:59;5.80;;;3.10;;
27365;SDS011;14837;57.148;-2.144;2023-09-18T08:44:29;3.70;;;3.08;;
27365;SDS011;14837;57.148;-2.144;2023-09-18T08:46:56;3.10;;;2.78;;
27365;SDS011;14837;57.148;-2.144;2023-09-18T08:49:23;3.88;;;3.28;;
27365;SDS011;14837;57.148;-2.144;2023-09-18T08:51:50;4.57;;;3.33;;
27365;SDS011;14837;57.148;-2.144;2023-09-18T08:54:17;5.00;;;3.35;;
27365;SDS011;14837;57.148;-2.144;2023-09-18T08:56:44;3.30;;;2.95;;
27365;SDS011;14837;57.148;-2.144;2023-09-18T08:59:10;5.57;;;3.28;;
27365;SDS011;14837;57.148;-2.144;2023-09-18T09:01:38;3.45;;;3.15;;
27365;SDS011;14837;57.148;-2.144;2023-09-18T09:04:05;3.95;;;3.58;;
27365;SDS011;14837;57.148;-2.144;2023-09-18T09:06:31;2.78;;;2.58;;
27365;SDS011;14837;57.148;-2.144;2023-09-18T09:08:58;3.58;;;3.28;;
27365;SDS011;14837;57.148;-2.144;2023-09-18T09:11:25;3.00;;;2.80;;
27365;SDS011;14837;57.148;-2.144;2023-09-18T09:14:11;3.75;;;2.80;;
27365;SDS011;14837;57.148;-2.144;2023-09-18T09:16:46;4.35;;;3.65;;
27365;SDS011;14837;57.148;-2.144;2023-09-18T09:19:15;4.20;;;3.40;;
27365;SDS011;14837;57.148;-2.144;2023-09-18T09:21:42;5.45;;;4.20;;
27365;SDS011;14837;57.148;-2.144;2023-09-18T09:24:10;6.25;;;4.75;;
27365;SDS011;14837;57.148;-2.144;2023-09-18T09:26:40;5.20;;;4.70;;
27365;SDS011;14837;57.148;-2.144;2023-09-18T09:29:14;5.85;;;5.32;;
27365;SDS011;14837;57.148;-2.144;2023-09-18T09:31:42;5.25;;;4.75;;
27365;SDS011;14837;57.148;-2.144;2023-09-18T09:34:09;4.60;;;4.20;;
27365;SDS011;14837;57.148;-2.144;2023-09-18T09:36:36;5.32;;;4.90;;
27365;SDS011;14837;57.148;-2.144;2023-09-18T09:39:02;7.68;;;5.32;;
27365;SDS011;14837;57.148;-2.144;2023-09-18T09:41:31;7.10;;;5.45;;
27365;SDS011;14837;57.148;-2.144;2023-09-18T09:43:58;5.85;;;5.35;;
27365;SDS011;14837;57.148;-2.144;2023-09-18T09:46:25;5.70;;;5.22;;
27365;SDS011;14837;57.148;-2.144;2023-09-18T09:49:02;4.93;;;4.43;;
27365;SDS011;14837;57.148;-2.144;2023-09-18T09:51:29;4.88;;;4.38;;
27365;SDS011;14837;57.148;-2.144;2023-09-18T09:53:56;5.10;;;4.47;;
27365;SDS011;14837;57.148;-2.144;2023-09-18T09:56:41;4.70;;;4.15;;
27365;SDS011;14837;57.148;-2.144;2023-09-18T09:59:08;6.32;;;4.97;;
27365;SDS011;14837;57.148;-2.144;2023-09-18T10:01:35;5.20;;;4.35;;
27365;SDS011;14837;57.148;-2.144;2023-09-18T10:04:05;4.20;;;3.60;;
27365;SDS011;14837;57.148;-2.144;2023-09-18T10:06:34;4.05;;;3.58;;
27365;SDS011;14837;57.148;-2.144;2023-09-18T10:09:04;4.13;;;3.65;;
27365;SDS011;14837;57.148;-2.144;2023-09-18T10:11:34;4.47;;;4.07;;
27365;SDS011;14837;57.148;-2.144;2023-09-18T10:14:28;4.65;;;3.90;;
27365;SDS011;14837;57.148;-2.144;2023-09-18T10:16:50;5.50;;;4.47;;
27365;SDS011;14837;57.148;-2.144;2023-09-18T10:19:21;5.05;;;3.13;;
27365;SDS011;14837;57.148;-2.144;2023-09-18T10:21:55;2.63;;;2.08;;
27365;SDS011;14837;57.148;-2.144;2023-09-18T10:29:20;4.00;;;2.47;;
27365;SDS011;14837;57.148;-2.144;2023-09-18T10:31:47;2.40;;;2.00;;
27365;SDS011;14837;57.148;-2.144;2023-09-18T10:34:14;2.83;;;1.55;;
27365;SDS011;14837;57.148;-2.144;2023-09-18T10:36:42;2.10;;;1.90;;
27365;SDS011;14837;57.148;-2.144;2023-09-18T10:39:10;2.47;;;1.50;;
27365;SDS011;14837;57.148;-2.144;2023-09-18T10:41:39;2.58;;;1.67;;
27365;SDS011;14837;57.148;-2.144;2023-09-18T10:44:08;3.53;;;1.15;;
27365;SDS011;14837;57.148;-2.144;2023-09-18T10:46:35;1.60;;;0.80;;
27365;SDS011;14837;57.148;-2.144;2023-09-18T10:49:01;1.80;;;0.90;;
27365;SDS011;14837;57.148;-2.144;2023-09-18T10:51:29;2.63;;;0.73;;
27365;SDS011;14837;57.148;-2.144;2023-09-18T10:53:57;1.30;;;0.68;;
27365;SDS011;14837;57.148;-2.144;2023-09-18T10:56:24;3.58;;;0.80;;
27365;SDS011;14837;57.148;-2.144;2023-09-18T10:59:00;0.70;;;0.57;;
27365;SDS011;14837;57.148;-2.144;2023-09-18T11:01:27;1.38;;;0.75;;
27365;SDS011;14837;57.148;-2.144;2023-09-18T11:03:57;0.90;;;0.50;;
27365;SDS011;14837;57.148;-2.144;2023-09-18T11:06:26;0.70;;;0.50;;
27365;SDS011;14837;57.148;-2.144;2023-09-18T11:09:03;0.40;;;0.40;;
27365;SDS011;14837;57.148;-2.144;2023-09-18T11:11:30;0.50;;;0.50;;
27365;SDS011;14837;57.148;-2.144;2023-09-18T11:13:59;0.85;;;0.73;;
27365;SDS011;14837;57.148;-2.144;2023-09-18T11:21:26;0.20;;;0.20;;
27365;SDS011;14837;57.148;-2.144;2023-09-18T11:24:00;0.35;;;0.28;;
27365;SDS011;14837;57.148;-2.144;2023-09-18T11:26:31;0.20;;;0.20;;
27365;SDS011;14837;57.148;-2.144;2023-09-18T11:29:05;0.13;;;0.13;;
27365;SDS011;14837;57.148;-2.144;2023-09-18T11:31:41;0.30;;;0.20;;
27365;SDS011;14837;57.148;-2.144;2023-09-18T11:34:13;0.30;;;0.30;;
27365;SDS011;14837;57.148;-2.144;2023-09-18T11:36:40;0.63;;;0.30;;
27365;SDS011;14837;57.148;-2.144;2023-09-18T11:39:07;0.17;;;0.17;;
27365;SDS011;14837;57.148;-2.144;2023-09-18T11:41:35;0.25;;;0.20;;
27365;SDS011;14837;57.148;-2.144;2023-09-18T11:46:46;0.30;;;0.30;;
27365;SDS011;14837;57.148;-2.144;2023-09-18T11:49:15;0.30;;;0.30;;
27365;SDS011;14837;57.148;-2.144;2023-09-18T11:51:46;0.50;;;0.38;;
27365;SDS011;14837;57.148;-2.144;2023-09-18T11:54:13;0.30;;;0.30;;
27365;SDS011;14837;57.148;-2.144;2023-09-18T11:56:41;1.42;;;0.38;;
27365;SDS011;14837;57.148;-2.144;2023-09-18T11:59:08;0.40;;;0.38;;
27365;SDS011;14837;57.148;-2.144;2023-09-18T12:01:36;0.55;;;0.40;;
27365;SDS011;14837;57.148;-2.144;2023-09-18T12:04:06;0.30;;;0.30;;
27365;SDS011;14837;57.148;-2.144;2023-09-18T12:06:36;0.30;;;0.30;;
27365;SDS011;14837;57.148;-2.144;2023-09-18T12:09:03;2.38;;;0.38;;
27365;SDS011;14837;57.148;-2.144;2023-09-18T12:11:30;0.68;;;0.50;;
27365;SDS011;14837;57.148;-2.144;2023-09-18T12:13:56;1.13;;;0.57;;
27365;SDS011;14837;57.148;-2.144;2023-09-18T12:16:24;0.85;;;0.52;;
27365;SDS011;14837;57.148;-2.144;2023-09-18T12:18:52;0.63;;;0.60;;
27365;SDS011;14837;57.148;-2.144;2023-09-18T12:21:18;0.75;;;0.52;;
27365;SDS011;14837;57.148;-2.144;2023-09-18T12:23:45;0.60;;;0.50;;
27365;SDS011;14837;57.148;-2.144;2023-09-18T12:26:13;0.40;;;0.40;;
27365;SDS011;14837;57.148;-2.144;2023-09-18T12:28:42;0.68;;;0.57;;
27365;SDS011;14837;57.148;-2.144;2023-09-18T12:31:12;0.85;;;0.70;;
27365;SDS011;14837;57.148;-2.144;2023-09-18T12:33:40;0.80;;;0.70;;
27365;SDS011;14837;57.148;-2.144;2023-09-18T12:36:07;0.75;;;0.52;;
27365;SDS011;14837;57.148;-2.144;2023-09-18T12:38:34;0.50;;;0.50;;
27365;SDS011;14837;57.148;-2.144;2023-09-18T12:41:03;0.47;;;0.47;;
27365;SDS011;14837;57.148;-2.144;2023-09-18T12:43:42;0.90;;;0.63;;
27365;SDS011;14837;57.148;-2.144;2023-09-18T12:46:10;0.50;;;0.32;;
27365;SDS011;14837;57.148;-2.144;2023-09-18T12:48:37;0.90;;;0.60;;
27365;SDS011;14837;57.148;-2.144;2023-09-18T12:51:05;0.50;;;0.40;;
27365;SDS011;14837;57.148;-2.144;2023-09-18T12:53:31;0.90;;;0.50;;
27365;SDS011;14837;57.148;-2.144;2023-09-18T12:56:08;0.45;;;0.40;;
27365;SDS011;14837;57.148;-2.144;2023-09-18T12:58:35;0.73;;;0.73;;
27365;SDS011;14837;57.148;-2.144;2023-09-18T13:01:17;0.65;;;0.50;;
27365;SDS011;14837;57.148;-2.144;2023-09-18T13:03:45;0.40;;;0.30;;
27365;SDS011;14837;57.148;-2.144;2023-09-18T13:06:15;0.88;;;0.52;;
27365;SDS011;14837;57.148;-2.144;2023-09-18T13:08:42;0.75;;;0.40;;
27365;SDS011;14837;57.148;-2.144;2023-09-18T13:11:09;1.55;;;0.40;;
27365;SDS011;14837;57.148;-2.144;2023-09-18T13:13:37;0.38;;;0.35;;
27365;SDS011;14837;57.148;-2.144;2023-09-18T13:16:05;0.52;;;0.50;;
27365;SDS011;14837;57.148;-2.144;2023-09-18T13:18:32;0.30;;;0.30;;
27365;SDS011;14837;57.148;-2.144;2023-09-18T13:20:59;0.50;;;0.35;;
27365;SDS011;14837;57.148;-2.144;2023-09-18T13:23:29;0.65;;;0.50;;
27365;SDS011;14837;57.148;-2.144;2023-09-18T13:26:00;1.90;;;1.58;;
27365;SDS011;14837;57.148;-2.144;2023-09-18T13:28:27;1.20;;;1.05;;
27365;SDS011;14837;57.148;-2.144;2023-09-18T13:30:53;0.93;;;0.40;;
27365;SDS011;14837;57.148;-2.144;2023-09-18T13:33:20;0.60;;;0.43;;
27365;SDS011;14837;57.148;-2.144;2023-09-18T13:35:47;0.70;;;0.50;;
27365;SDS011;14837;57.148;-2.144;2023-09-18T13:38:13;1.75;;;0.52;;
27365;SDS011;14837;57.148;-2.144;2023-09-18T13:40:45;0.47;;;0.30;;
27365;SDS011;14837;57.148;-2.144;2023-09-18T13:43:13;1.40;;;0.40;;
27365;SDS011;14837;57.148;-2.144;2023-09-18T13:45:41;0.98;;;0.50;;
27365;SDS011;14837;57.148;-2.144;2023-09-18T13:48:07;0.65;;;0.50;;
27365;SDS011;14837;57.148;-2.144;2023-09-18T13:50:35;0.85;;;0.75;;
27365;SDS011;14837;57.148;-2.144;2023-09-18T13:53:02;0.85;;;0.40;;
27365;SDS011;14837;57.148;-2.144;2023-09-18T13:55:31;0.70;;;0.63;;
27365;SDS011;14837;57.148;-2.144;2023-09-18T13:57:57;0.88;;;0.57;;
27365;SDS011;14837;57.148;-2.144;2023-09-18T14:00:24;0.73;;;0.60;;
27365;SDS011;14837;57.148;-2.144;2023-09-18T14:02:52;0.60;;;0.60;;
27365;SDS011;14837;57.148;-2.144;2023-09-18T14:05:18;0.68;;;0.45;;
27365;SDS011;14837;57.148;-2.144;2023-09-18T14:07:46;1.50;;;1.02;;
27365;SDS011;14837;57.148;-2.144;2023-09-18T14:10:14;1.25;;;0.50;;
27365;SDS011;14837;57.148;-2.144;2023-09-18T14:12:41;0.75;;;0.50;;
27365;SDS011;14837;57.148;-2.144;2023-09-18T14:15:08;0.80;;;0.50;;
27365;SDS011;14837;57.148;-2.144;2023-09-18T14:17:35;0.45;;;0.40;;
27365;SDS011;14837;57.148;-2.144;2023-09-18T14:20:02;0.52;;;0.40;;
27365;SDS011;14837;57.148;-2.144;2023-09-18T14:22:36;0.80;;;0.50;;
27365;SDS011;14837;57.148;-2.144;2023-09-18T14:25:03;1.83;;;0.60;;
27365;SDS011;14837;57.148;-2.144;2023-09-18T14:27:33;0.85;;;0.55;;
27365;SDS011;14837;57.148;-2.144;2023-09-18T14:30:02;0.50;;;0.43;;
27365;SDS011;14837;57.148;-2.144;2023-09-18T14:32:33;0.80;;;0.50;;
27365;SDS011;14837;57.148;-2.144;2023-09-18T14:35:03;0.75;;;0.60;;
27365;SDS011;14837;57.148;-2.144;2023-09-18T14:37:31;0.73;;;0.45;;
27365;SDS011;14837;57.148;-2.144;2023-09-18T14:39:58;0.50;;;0.45;;
27365;SDS011;14837;57.148;-2.144;2023-09-18T14:42:24;0.70;;;0.60;;
27365;SDS011;14837;57.148;-2.144;2023-09-18T14:44:51;0.52;;;0.43;;
27365;SDS011;14837;57.148;-2.144;2023-09-18T14:47:17;0.50;;;0.38;;
27365;SDS011;14837;57.148;-2.144;2023-09-18T14:49:50;1.33;;;0.82;;
27365;SDS011;14837;57.148;-2.144;2023-09-18T14:52:16;0.55;;;0.50;;
27365;SDS011;14837;57.148;-2.144;2023-09-18T14:54:45;0.73;;;0.50;;
27365;SDS011;14837;57.148;-2.144;2023-09-18T14:57:12;0.70;;;0.50;;